sensor_id;sensor_type;location;lat;lon;timestamp;P1;durP1;ratioP1;P2;durP2;ratioP2
19664;SDS011;9980;51.020;7.772;2023-04-29T00:01:22;7.87;;;7.17;;
19664;SDS011;9980;51.020;7.772;2023-04-29T00:03:48;8.60;;;7.80;;
19664;SDS011;9980;51.020;7.772;2023-04-29T00:06:15;8.47;;;7.60;;
19664;SDS011;9980;51.020;7.772;2023-04-29T00:08:42;7.47;;;6.77;;
19664;SDS011;9980;51.020;7.772;2023-04-29T00:11:08;8.43;;;7.73;;
19664;SDS011;9980;51.020;7.772;2023-04-29T00:13:36;9.60;;;8.70;;
19664;SDS011;9980;51.020;7.772;2023-04-29T00:16:05;9.73;;;8.83;;
19664;SDS011;9980;51.020;7.772;2023-04-29T00:18:33;9.77;;;8.43;;
19664;SDS011;9980;51.020;7.772;2023-04-29T00:20:59;8.57;;;7.77;;
19664;SDS011;9980;51.020;7.772;2023-04-29T00:23:26;9.27;;;8.37;;
19664;SDS011;9980;51.020;7.772;2023-04-29T00:25:53;9.40;;;8.50;;
19664;SDS011;9980;51.020;7.772;2023-04-29T00:28:19;10.07;;;9.07;;
19664;SDS011;9980;51.020;7.772;2023-04-29T00:30:45;9.63;;;8.73;;
19664;SDS011;9980;51.020;7.772;2023-04-29T00:33:12;9.50;;;8.60;;
19664;SDS011;9980;51.020;7.772;2023-04-29T00:35:38;8.90;;;8.10;;
19664;SDS011;9980;51.020;7.772;2023-04-29T00:38:04;10.20;;;9.20;;
19664;SDS011;9980;51.020;7.772;2023-04-29T00:40:31;10.30;;;9.30;;
19664;SDS011;9980;51.020;7.772;2023-04-29T00:42:57;9.47;;;8.53;;
19664;SDS011;9980;51.020;7.772;2023-04-29T00:45:23;9.83;;;8.93;;
19664;SDS011;9980;51.020;7.772;2023-04-29T00:47:50;10.27;;;9.27;;
19664;SDS011;9980;51.020;7.772;2023-04-29T00:50:16;10.67;;;9.57;;
19664;SDS011;9980;51.020;7.772;2023-04-29T00:52:43;10.27;;;9.27;;
19664;SDS011;9980;51.020;7.772;2023-04-29T00:55:10;10.00;;;9.00;;
19664;SDS011;9980;51.020;7.772;2023-04-29T00:57:38;10.70;;;9.60;;
19664;SDS011;9980;51.020;7.772;2023-04-29T01:00:04;10.07;;;8.73;;
19664;SDS011;9980;51.020;7.772;2023-04-29T01:02:32;10.23;;;8.90;;
19664;SDS011;9980;51.020;7.772;2023-04-29T01:04:59;9.87;;;8.37;;
19664;SDS011;9980;51.020;7.772;2023-04-29T01:07:29;11.37;;;8.20;;
19664;SDS011;9980;51.020;7.772;2023-04-29T01:10:52;8.63;;;7.83;;
19664;SDS011;9980;51.020;7.772;2023-04-29T01:13:30;10.03;;;7.60;;
19664;SDS011;9980;51.020;7.772;2023-04-29T01:16:10;8.07;;;7.27;;
19664;SDS011;9980;51.020;7.772;2023-04-29T01:22:19;7.67;;;6.57;;
19664;SDS011;9980;51.020;7.772;2023-04-29T01:24:46;7.80;;;7.00;;
19664;SDS011;9980;51.020;7.772;2023-04-29T01:30:30;7.57;;;6.77;;
19664;SDS011;9980;51.020;7.772;2023-04-29T01:33:30;8.10;;;6.80;;
19664;SDS011;9980;51.020;7.772;2023-04-29T01:36:33;6.90;;;6.20;;
19664;SDS011;9980;51.020;7.772;2023-04-29T01:42:06;6.87;;;6.17;;
19664;SDS011;9980;51.020;7.772;2023-04-29T01:44:48;7.43;;;6.67;;
19664;SDS011;9980;51.020;7.772;2023-04-29T01:47:20;6.83;;;6.13;;
19664;SDS011;9980;51.020;7.772;2023-04-29T01:49:50;7.17;;;6.47;;
19664;SDS011;9980;51.020;7.772;2023-04-29T01:52:18;7.73;;;6.53;;
19664;SDS011;9980;51.020;7.772;2023-04-29T01:54:51;7.60;;;6.07;;
19664;SDS011;9980;51.020;7.772;2023-04-29T01:57:18;7.60;;;6.57;;
19664;SDS011;9980;51.020;7.772;2023-04-29T01:59:59;7.30;;;6.53;;
19664;SDS011;9980;51.020;7.772;2023-04-29T02:02:38;7.03;;;6.23;;
19664;SDS011;9980;51.020;7.772;2023-04-29T02:05:15;7.17;;;6.47;;
19664;SDS011;9980;51.020;7.772;2023-04-29T02:07:49;8.27;;;6.77;;
19664;SDS011;9980;51.020;7.772;2023-04-29T02:10:16;8.67;;;6.83;;
19664;SDS011;9980;51.020;7.772;2023-04-29T02:12:45;6.77;;;6.13;;
19664;SDS011;9980;51.020;7.772;2023-04-29T02:15:11;6.53;;;5.63;;
19664;SDS011;9980;51.020;7.772;2023-04-29T02:17:38;8.13;;;6.80;;
19664;SDS011;9980;51.020;7.772;2023-04-29T02:20:06;7.67;;;6.87;;
19664;SDS011;9980;51.020;7.772;2023-04-29T02:22:33;7.60;;;6.53;;
19664;SDS011;9980;51.020;7.772;2023-04-29T02:24:59;7.70;;;6.43;;
19664;SDS011;9980;51.020;7.772;2023-04-29T02:27:26;8.17;;;6.80;;
19664;SDS011;9980;51.020;7.772;2023-04-29T02:29:52;7.33;;;5.97;;
19664;SDS011;9980;51.020;7.772;2023-04-29T02:32:19;7.80;;;6.77;;
19664;SDS011;9980;51.020;7.772;2023-04-29T02:34:45;9.40;;;6.70;;
19664;SDS011;9980;51.020;7.772;2023-04-29T02:37:11;7.70;;;6.90;;
19664;SDS011;9980;51.020;7.772;2023-04-29T02:39:38;8.43;;;6.30;;
19664;SDS011;9980;51.020;7.772;2023-04-29T02:42:05;8.17;;;6.60;;
19664;SDS011;9980;51.020;7.772;2023-04-29T02:44:34;7.73;;;6.67;;
19664;SDS011;9980;51.020;7.772;2023-04-29T02:47:01;7.87;;;7.07;;
19664;SDS011;9980;51.020;7.772;2023-04-29T02:49:27;7.33;;;6.50;;
19664;SDS011;9980;51.020;7.772;2023-04-29T02:51:54;6.67;;;5.97;;
19664;SDS011;9980;51.020;7.772;2023-04-29T02:54:21;8.20;;;7.10;;
19664;SDS011;9980;51.020;7.772;2023-04-29T02:56:47;7.00;;;6.30;;
19664;SDS011;9980;51.020;7.772;2023-04-29T02:59:14;7.13;;;6.43;;
19664;SDS011;9980;51.020;7.772;2023-04-29T03:01:40;10.57;;;7.97;;
19664;SDS011;9980;51.020;7.772;2023-04-29T03:04:08;7.87;;;7.07;;
19664;SDS011;9980;51.020;7.772;2023-04-29T03:06:34;10.37;;;8.87;;
19664;SDS011;9980;51.020;7.772;2023-04-29T03:09:01;9.83;;;8.70;;
19664;SDS011;9980;51.020;7.772;2023-04-29T03:11:27;10.67;;;9.17;;
19664;SDS011;9980;51.020;7.772;2023-04-29T03:13:53;12.30;;;9.80;;
19664;SDS011;9980;51.020;7.772;2023-04-29T03:16:20;12.30;;;10.47;;
19664;SDS011;9980;51.020;7.772;2023-04-29T03:18:47;15.03;;;11.70;;
19664;SDS011;9980;51.020;7.772;2023-04-29T03:21:14;15.27;;;11.37;;
19664;SDS011;9980;51.020;7.772;2023-04-29T03:23:40;16.93;;;12.90;;
19664;SDS011;9980;51.020;7.772;2023-04-29T03:26:10;16.37;;;12.97;;
19664;SDS011;9980;51.020;7.772;2023-04-29T03:28:37;20.13;;;14.57;;
19664;SDS011;9980;51.020;7.772;2023-04-29T03:31:03;16.83;;;12.90;;
19664;SDS011;9980;51.020;7.772;2023-04-29T03:33:30;17.93;;;13.70;;
19664;SDS011;9980;51.020;7.772;2023-04-29T03:35:56;16.13;;;13.03;;
19664;SDS011;9980;51.020;7.772;2023-04-29T03:38:38;17.00;;;13.57;;
19664;SDS011;9980;51.020;7.772;2023-04-29T03:41:04;16.53;;;12.77;;
19664;SDS011;9980;51.020;7.772;2023-04-29T03:43:30;17.40;;;13.13;;
19664;SDS011;9980;51.020;7.772;2023-04-29T03:45:57;18.27;;;13.63;;
19664;SDS011;9980;51.020;7.772;2023-04-29T03:48:24;19.03;;;14.27;;
19664;SDS011;9980;51.020;7.772;2023-04-29T03:50:51;19.20;;;13.10;;
19664;SDS011;9980;51.020;7.772;2023-04-29T03:53:17;15.53;;;12.37;;
19664;SDS011;9980;51.020;7.772;2023-04-29T03:55:44;17.90;;;13.47;;
19664;SDS011;9980;51.020;7.772;2023-04-29T03:58:11;22.47;;;15.67;;
19664;SDS011;9980;51.020;7.772;2023-04-29T04:00:37;19.30;;;13.97;;
19664;SDS011;9980;51.020;7.772;2023-04-29T04:03:09;21.07;;;14.77;;
19664;SDS011;9980;51.020;7.772;2023-04-29T04:05:36;18.53;;;14.33;;
19664;SDS011;9980;51.020;7.772;2023-04-29T04:08:07;20.57;;;15.73;;
19664;SDS011;9980;51.020;7.772;2023-04-29T04:10:54;20.87;;;15.20;;
19664;SDS011;9980;51.020;7.772;2023-04-29T04:13:53;22.40;;;15.63;;
19664;SDS011;9980;51.020;7.772;2023-04-29T04:16:19;23.90;;;17.07;;
19664;SDS011;9980;51.020;7.772;2023-04-29T04:18:45;21.30;;;15.77;;
19664;SDS011;9980;51.020;7.772;2023-04-29T04:21:12;20.53;;;14.57;;
19664;SDS011;9980;51.020;7.772;2023-04-29T04:23:42;24.73;;;17.23;;
19664;SDS011;9980;51.020;7.772;2023-04-29T04:26:11;22.60;;;17.57;;
19664;SDS011;9980;51.020;7.772;2023-04-29T04:29:00;23.13;;;16.53;;
19664;SDS011;9980;51.020;7.772;2023-04-29T04:31:32;28.47;;;18.00;;
19664;SDS011;9980;51.020;7.772;2023-04-29T04:33:59;23.10;;;17.03;;
19664;SDS011;9980;51.020;7.772;2023-04-29T04:36:27;28.87;;;18.17;;
19664;SDS011;9980;51.020;7.772;2023-04-29T04:38:53;24.03;;;17.70;;
19664;SDS011;9980;51.020;7.772;2023-04-29T04:41:20;26.13;;;18.17;;
19664;SDS011;9980;51.020;7.772;2023-04-29T04:43:47;27.07;;;17.83;;
19664;SDS011;9980;51.020;7.772;2023-04-29T04:46:21;26.03;;;17.73;;
19664;SDS011;9980;51.020;7.772;2023-04-29T04:48:55;27.10;;;17.80;;
19664;SDS011;9980;51.020;7.772;2023-04-29T04:51:21;23.23;;;16.20;;
19664;SDS011;9980;51.020;7.772;2023-04-29T04:53:48;21.40;;;15.27;;
19664;SDS011;9980;51.020;7.772;2023-04-29T04:56:19;22.90;;;16.10;;
19664;SDS011;9980;51.020;7.772;2023-04-29T04:58:45;24.87;;;17.23;;
19664;SDS011;9980;51.020;7.772;2023-04-29T05:01:13;19.30;;;14.77;;
19664;SDS011;9980;51.020;7.772;2023-04-29T05:03:40;19.57;;;14.23;;
19664;SDS011;9980;51.020;7.772;2023-04-29T05:06:06;19.37;;;13.63;;
19664;SDS011;9980;51.020;7.772;2023-04-29T05:08:33;19.53;;;14.00;;
19664;SDS011;9980;51.020;7.772;2023-04-29T05:11:02;19.33;;;13.77;;
19664;SDS011;9980;51.020;7.772;2023-04-29T05:13:28;16.00;;;11.80;;
19664;SDS011;9980;51.020;7.772;2023-04-29T05:15:55;18.83;;;12.67;;
19664;SDS011;9980;51.020;7.772;2023-04-29T05:18:25;16.27;;;12.10;;
19664;SDS011;9980;51.020;7.772;2023-04-29T05:20:51;16.27;;;12.70;;
19664;SDS011;9980;51.020;7.772;2023-04-29T05:23:17;14.07;;;11.07;;
19664;SDS011;9980;51.020;7.772;2023-04-29T05:25:45;11.43;;;9.20;;
19664;SDS011;9980;51.020;7.772;2023-04-29T05:28:12;9.67;;;7.37;;
19664;SDS011;9980;51.020;7.772;2023-04-29T05:30:40;9.30;;;7.87;;
19664;SDS011;9980;51.020;7.772;2023-04-29T05:33:06;7.83;;;7.03;;
19664;SDS011;9980;51.020;7.772;2023-04-29T05:35:33;8.20;;;6.97;;
19664;SDS011;9980;51.020;7.772;2023-04-29T05:37:59;8.40;;;7.00;;
19664;SDS011;9980;51.020;7.772;2023-04-29T05:40:34;7.43;;;6.63;;
19664;SDS011;9980;51.020;7.772;2023-04-29T05:43:29;7.07;;;6.07;;
19664;SDS011;9980;51.020;7.772;2023-04-29T05:45:56;5.93;;;5.33;;
19664;SDS011;9980;51.020;7.772;2023-04-29T05:48:23;5.63;;;5.03;;
19664;SDS011;9980;51.020;7.772;2023-04-29T05:50:50;5.83;;;5.23;;
19664;SDS011;9980;51.020;7.772;2023-04-29T05:53:18;5.53;;;4.93;;
19664;SDS011;9980;51.020;7.772;2023-04-29T05:55:46;5.83;;;5.27;;
19664;SDS011;9980;51.020;7.772;2023-04-29T05:58:16;5.37;;;4.87;;
19664;SDS011;9980;51.020;7.772;2023-04-29T06:00:42;6.77;;;6.00;;
19664;SDS011;9980;51.020;7.772;2023-04-29T06:03:16;6.60;;;5.27;;
19664;SDS011;9980;51.020;7.772;2023-04-29T06:05:42;5.73;;;5.13;;
19664;SDS011;9980;51.020;7.772;2023-04-29T06:08:36;6.27;;;5.67;;
19664;SDS011;9980;51.020;7.772;2023-04-29T06:11:12;6.00;;;5.40;;
19664;SDS011;9980;51.020;7.772;2023-04-29T06:13:39;6.30;;;5.70;;
19664;SDS011;9980;51.020;7.772;2023-04-29T06:16:05;6.60;;;6.00;;
19664;SDS011;9980;51.020;7.772;2023-04-29T06:18:33;7.20;;;6.50;;
19664;SDS011;9980;51.020;7.772;2023-04-29T06:20:59;6.37;;;5.77;;
19664;SDS011;9980;51.020;7.772;2023-04-29T06:23:25;7.03;;;6.27;;
19664;SDS011;9980;51.020;7.772;2023-04-29T06:25:52;6.53;;;5.80;;
19664;SDS011;9980;51.020;7.772;2023-04-29T06:28:20;6.43;;;5.83;;
19664;SDS011;9980;51.020;7.772;2023-04-29T06:30:46;6.40;;;5.80;;
19664;SDS011;9980;51.020;7.772;2023-04-29T06:33:13;6.77;;;6.10;;
19664;SDS011;9980;51.020;7.772;2023-04-29T06:35:39;5.73;;;5.23;;
19664;SDS011;9980;51.020;7.772;2023-04-29T06:38:06;6.83;;;5.77;;
19664;SDS011;9980;51.020;7.772;2023-04-29T06:40:59;5.70;;;5.20;;
19664;SDS011;9980;51.020;7.772;2023-04-29T06:43:53;7.10;;;5.97;;
19664;SDS011;9980;51.020;7.772;2023-04-29T06:46:37;6.70;;;5.97;;
19664;SDS011;9980;51.020;7.772;2023-04-29T06:49:14;6.10;;;5.50;;
19664;SDS011;9980;51.020;7.772;2023-04-29T06:51:40;7.93;;;6.40;;
19664;SDS011;9980;51.020;7.772;2023-04-29T06:54:07;7.63;;;6.20;;
19664;SDS011;9980;51.020;7.772;2023-04-29T06:56:34;5.87;;;5.33;;
19664;SDS011;9980;51.020;7.772;2023-04-29T06:59:00;6.50;;;5.90;;
19664;SDS011;9980;51.020;7.772;2023-04-29T07:01:26;6.80;;;6.10;;
19664;SDS011;9980;51.020;7.772;2023-04-29T07:03:53;6.73;;;6.03;;
19664;SDS011;9980;51.020;7.772;2023-04-29T07:06:19;6.03;;;5.40;;
19664;SDS011;9980;51.020;7.772;2023-04-29T07:08:46;6.23;;;5.63;;
19664;SDS011;9980;51.020;7.772;2023-04-29T07:11:13;5.80;;;5.30;;
19664;SDS011;9980;51.020;7.772;2023-04-29T07:13:40;5.70;;;5.20;;
19664;SDS011;9980;51.020;7.772;2023-04-29T07:16:13;5.97;;;5.37;;
19664;SDS011;9980;51.020;7.772;2023-04-29T07:18:42;6.30;;;5.70;;
19664;SDS011;9980;51.020;7.772;2023-04-29T07:21:09;6.50;;;5.43;;
19664;SDS011;9980;51.020;7.772;2023-04-29T07:23:36;5.30;;;4.80;;
19664;SDS011;9980;51.020;7.772;2023-04-29T07:26:10;5.97;;;5.37;;
19664;SDS011;9980;51.020;7.772;2023-04-29T07:28:38;6.33;;;5.63;;
19664;SDS011;9980;51.020;7.772;2023-04-29T07:31:05;5.87;;;5.37;;
19664;SDS011;9980;51.020;7.772;2023-04-29T07:33:33;5.93;;;5.43;;
19664;SDS011;9980;51.020;7.772;2023-04-29T07:36:01;7.00;;;5.70;;
19664;SDS011;9980;51.020;7.772;2023-04-29T07:38:32;5.63;;;5.13;;
19664;SDS011;9980;51.020;7.772;2023-04-29T07:40:59;5.80;;;5.30;;
19664;SDS011;9980;51.020;7.772;2023-04-29T07:43:25;6.67;;;5.93;;
19664;SDS011;9980;51.020;7.772;2023-04-29T07:45:52;7.07;;;6.23;;
19664;SDS011;9980;51.020;7.772;2023-04-29T07:48:19;7.03;;;6.33;;
19664;SDS011;9980;51.020;7.772;2023-04-29T07:50:46;8.07;;;6.90;;
19664;SDS011;9980;51.020;7.772;2023-04-29T07:53:12;9.43;;;7.77;;
19664;SDS011;9980;51.020;7.772;2023-04-29T07:55:40;10.53;;;9.43;;
19664;SDS011;9980;51.020;7.772;2023-04-29T07:58:07;11.77;;;9.57;;
19664;SDS011;9980;51.020;7.772;2023-04-29T08:00:33;12.97;;;10.60;;
19664;SDS011;9980;51.020;7.772;2023-04-29T08:03:00;13.50;;;10.03;;
19664;SDS011;9980;51.020;7.772;2023-04-29T08:05:30;14.13;;;10.50;;
19664;SDS011;9980;51.020;7.772;2023-04-29T08:07:57;14.40;;;11.20;;
19664;SDS011;9980;51.020;7.772;2023-04-29T08:10:24;14.27;;;11.10;;
19664;SDS011;9980;51.020;7.772;2023-04-29T08:12:51;15.00;;;12.53;;
19664;SDS011;9980;51.020;7.772;2023-04-29T08:15:17;18.50;;;12.57;;
19664;SDS011;9980;51.020;7.772;2023-04-29T08:17:45;15.63;;;12.77;;
19664;SDS011;9980;51.020;7.772;2023-04-29T08:20:11;20.20;;;13.13;;
19664;SDS011;9980;51.020;7.772;2023-04-29T08:22:38;16.83;;;12.90;;
19664;SDS011;9980;51.020;7.772;2023-04-29T08:25:04;19.57;;;14.07;;
19664;SDS011;9980;51.020;7.772;2023-04-29T08:27:31;18.20;;;13.90;;
19664;SDS011;9980;51.020;7.772;2023-04-29T08:29:57;19.60;;;14.27;;
19664;SDS011;9980;51.020;7.772;2023-04-29T08:32:24;19.57;;;14.00;;
19664;SDS011;9980;51.020;7.772;2023-04-29T08:34:50;17.00;;;13.70;;
19664;SDS011;9980;51.020;7.772;2023-04-29T08:37:17;18.37;;;14.10;;
19664;SDS011;9980;51.020;7.772;2023-04-29T08:39:45;19.23;;;14.67;;
19664;SDS011;9980;51.020;7.772;2023-04-29T08:42:12;19.10;;;13.93;;
19664;SDS011;9980;51.020;7.772;2023-04-29T08:44:39;16.70;;;13.57;;
19664;SDS011;9980;51.020;7.772;2023-04-29T08:47:05;17.77;;;12.30;;
19664;SDS011;9980;51.020;7.772;2023-04-29T08:49:33;17.87;;;13.50;;
19664;SDS011;9980;51.020;7.772;2023-04-29T08:52:02;15.40;;;13.03;;
19664;SDS011;9980;51.020;7.772;2023-04-29T08:54:30;18.47;;;13.87;;
19664;SDS011;9980;51.020;7.772;2023-04-29T08:56:57;17.23;;;13.27;;
19664;SDS011;9980;51.020;7.772;2023-04-29T08:59:25;17.73;;;14.30;;
19664;SDS011;9980;51.020;7.772;2023-04-29T09:01:53;15.70;;;12.03;;
19664;SDS011;9980;51.020;7.772;2023-04-29T09:07:06;16.40;;;12.90;;
19664;SDS011;9980;51.020;7.772;2023-04-29T09:09:35;15.27;;;12.07;;
19664;SDS011;9980;51.020;7.772;2023-04-29T09:12:04;17.50;;;12.80;;
19664;SDS011;9980;51.020;7.772;2023-04-29T09:14:31;13.73;;;11.60;;
19664;SDS011;9980;51.020;7.772;2023-04-29T09:16:59;15.93;;;11.90;;
19664;SDS011;9980;51.020;7.772;2023-04-29T09:19:32;15.90;;;12.80;;
19664;SDS011;9980;51.020;7.772;2023-04-29T09:22:01;14.27;;;12.50;;
19664;SDS011;9980;51.020;7.772;2023-04-29T09:24:29;15.87;;;12.97;;
19664;SDS011;9980;51.020;7.772;2023-04-29T09:26:56;15.20;;;12.33;;
19664;SDS011;9980;51.020;7.772;2023-04-29T09:29:24;15.20;;;12.27;;
19664;SDS011;9980;51.020;7.772;2023-04-29T09:31:51;13.27;;;11.53;;
19664;SDS011;9980;51.020;7.772;2023-04-29T09:34:33;16.40;;;11.90;;
19664;SDS011;9980;51.020;7.772;2023-04-29T09:37:01;14.60;;;11.43;;
19664;SDS011;9980;51.020;7.772;2023-04-29T09:39:36;14.93;;;12.17;;
19664;SDS011;9980;51.020;7.772;2023-04-29T09:42:04;14.00;;;11.80;;
19664;SDS011;9980;51.020;7.772;2023-04-29T09:44:32;13.83;;;10.70;;
19664;SDS011;9980;51.020;7.772;2023-04-29T09:47:01;13.37;;;11.03;;
19664;SDS011;9980;51.020;7.772;2023-04-29T09:49:33;12.07;;;10.63;;
19664;SDS011;9980;51.020;7.772;2023-04-29T09:52:06;11.43;;;10.10;;
19664;SDS011;9980;51.020;7.772;2023-04-29T09:54:35;13.90;;;10.80;;
19664;SDS011;9980;51.020;7.772;2023-04-29T09:57:04;12.20;;;10.23;;
19664;SDS011;9980;51.020;7.772;2023-04-29T09:59:33;10.23;;;8.83;;
19664;SDS011;9980;51.020;7.772;2023-04-29T10:02:13;12.20;;;9.30;;
19664;SDS011;9980;51.020;7.772;2023-04-29T10:04:46;10.60;;;9.13;;
19664;SDS011;9980;51.020;7.772;2023-04-29T10:07:20;9.47;;;8.57;;
19664;SDS011;9980;51.020;7.772;2023-04-29T10:09:47;10.23;;;9.20;;
19664;SDS011;9980;51.020;7.772;2023-04-29T10:12:17;10.17;;;8.63;;
19664;SDS011;9980;51.020;7.772;2023-04-29T10:15:10;9.97;;;8.33;;
19664;SDS011;9980;51.020;7.772;2023-04-29T10:18:02;7.80;;;6.73;;
19664;SDS011;9980;51.020;7.772;2023-04-29T10:21:06;8.20;;;6.67;;
19664;SDS011;9980;51.020;7.772;2023-04-29T10:23:36;7.43;;;6.20;;
19664;SDS011;9980;51.020;7.772;2023-04-29T10:26:02;6.27;;;5.67;;
19664;SDS011;9980;51.020;7.772;2023-04-29T10:28:32;7.13;;;6.43;;
19664;SDS011;9980;51.020;7.772;2023-04-29T10:31:01;7.47;;;6.40;;
19664;SDS011;9980;51.020;7.772;2023-04-29T10:33:32;6.80;;;6.10;;
19664;SDS011;9980;51.020;7.772;2023-04-29T10:36:01;6.37;;;5.33;;
19664;SDS011;9980;51.020;7.772;2023-04-29T10:38:30;6.40;;;5.80;;
19664;SDS011;9980;51.020;7.772;2023-04-29T10:41:09;5.67;;;5.17;;
19664;SDS011;9980;51.020;7.772;2023-04-29T10:43:45;5.50;;;5.00;;
19664;SDS011;9980;51.020;7.772;2023-04-29T10:46:16;5.77;;;5.20;;
19664;SDS011;9980;51.020;7.772;2023-04-29T10:48:45;5.97;;;5.37;;
19664;SDS011;9980;51.020;7.772;2023-04-29T10:51:26;6.53;;;5.17;;
19664;SDS011;9980;51.020;7.772;2023-04-29T10:53:59;6.23;;;5.63;;
19664;SDS011;9980;51.020;7.772;2023-04-29T10:56:37;5.43;;;4.93;;
19664;SDS011;9980;51.020;7.772;2023-04-29T10:59:43;7.80;;;6.43;;
19664;SDS011;9980;51.020;7.772;2023-04-29T11:02:11;6.10;;;5.50;;
19664;SDS011;9980;51.020;7.772;2023-04-29T11:07:33;6.97;;;6.03;;
19664;SDS011;9980;51.020;7.772;2023-04-29T11:10:01;9.07;;;7.63;;
19664;SDS011;9980;51.020;7.772;2023-04-29T11:12:27;8.73;;;7.83;;
19664;SDS011;9980;51.020;7.772;2023-04-29T11:14:54;7.60;;;6.90;;
19664;SDS011;9980;51.020;7.772;2023-04-29T11:17:35;8.90;;;7.43;;
19664;SDS011;9980;51.020;7.772;2023-04-29T11:20:02;9.17;;;7.33;;
19664;SDS011;9980;51.020;7.772;2023-04-29T11:22:34;8.67;;;7.67;;
19664;SDS011;9980;51.020;7.772;2023-04-29T11:25:02;8.57;;;7.70;;
19664;SDS011;9980;51.020;7.772;2023-04-29T11:27:34;8.80;;;7.90;;
19664;SDS011;9980;51.020;7.772;2023-04-29T11:30:06;10.00;;;8.20;;
19664;SDS011;9980;51.020;7.772;2023-04-29T11:32:34;9.57;;;7.57;;
19664;SDS011;9980;51.020;7.772;2023-04-29T11:37:39;10.60;;;8.77;;
19664;SDS011;9980;51.020;7.772;2023-04-29T11:40:08;9.30;;;8.37;;
19664;SDS011;9980;51.020;7.772;2023-04-29T11:42:40;9.33;;;7.67;;
19664;SDS011;9980;51.020;7.772;2023-04-29T11:45:10;10.90;;;9.43;;
19664;SDS011;9980;51.020;7.772;2023-04-29T11:47:36;11.70;;;9.63;;
19664;SDS011;9980;51.020;7.772;2023-04-29T11:50:08;16.03;;;8.97;;
19664;SDS011;9980;51.020;7.772;2023-04-29T11:52:35;13.20;;;10.27;;
19664;SDS011;9980;51.020;7.772;2023-04-29T11:55:04;11.37;;;9.63;;
19664;SDS011;9980;51.020;7.772;2023-04-29T11:57:34;13.73;;;10.50;;
19664;SDS011;9980;51.020;7.772;2023-04-29T12:00:01;11.60;;;9.93;;
19664;SDS011;9980;51.020;7.772;2023-04-29T12:02:33;13.63;;;10.13;;
19664;SDS011;9980;51.020;7.772;2023-04-29T12:05:02;12.43;;;10.30;;
19664;SDS011;9980;51.020;7.772;2023-04-29T12:07:33;13.53;;;10.63;;
19664;SDS011;9980;51.020;7.772;2023-04-29T12:10:00;14.17;;;10.73;;
19664;SDS011;9980;51.020;7.772;2023-04-29T12:12:27;11.33;;;9.63;;
19664;SDS011;9980;51.020;7.772;2023-04-29T12:14:55;11.93;;;10.07;;
19664;SDS011;9980;51.020;7.772;2023-04-29T12:17:22;11.80;;;9.53;;
19664;SDS011;9980;51.020;7.772;2023-04-29T12:19:49;13.40;;;10.10;;
19664;SDS011;9980;51.020;7.772;2023-04-29T12:22:15;11.43;;;9.53;;
19664;SDS011;9980;51.020;7.772;2023-04-29T12:24:44;13.60;;;10.33;;
19664;SDS011;9980;51.020;7.772;2023-04-29T12:27:10;13.90;;;10.83;;
19664;SDS011;9980;51.020;7.772;2023-04-29T12:29:37;11.07;;;9.47;;
19664;SDS011;9980;51.020;7.772;2023-04-29T12:32:05;11.13;;;9.53;;
19664;SDS011;9980;51.020;7.772;2023-04-29T12:34:33;11.33;;;9.43;;
19664;SDS011;9980;51.020;7.772;2023-04-29T12:37:00;11.40;;;9.57;;
19664;SDS011;9980;51.020;7.772;2023-04-29T12:39:27;13.40;;;10.10;;
19664;SDS011;9980;51.020;7.772;2023-04-29T12:41:58;12.27;;;10.30;;
19664;SDS011;9980;51.020;7.772;2023-04-29T12:44:35;11.63;;;9.50;;
19664;SDS011;9980;51.020;7.772;2023-04-29T12:47:06;11.77;;;9.83;;
19664;SDS011;9980;51.020;7.772;2023-04-29T12:49:35;11.80;;;9.80;;
19664;SDS011;9980;51.020;7.772;2023-04-29T12:52:02;12.93;;;9.90;;
19664;SDS011;9980;51.020;7.772;2023-04-29T12:54:29;12.27;;;10.30;;
19664;SDS011;9980;51.020;7.772;2023-04-29T12:56:56;11.53;;;10.33;;
19664;SDS011;9980;51.020;7.772;2023-04-29T12:59:22;12.93;;;10.10;;
19664;SDS011;9980;51.020;7.772;2023-04-29T13:01:49;13.70;;;11.27;;
19664;SDS011;9980;51.020;7.772;2023-04-29T13:04:15;13.80;;;11.17;;
19664;SDS011;9980;51.020;7.772;2023-04-29T13:06:42;15.43;;;12.50;;
19664;SDS011;9980;51.020;7.772;2023-04-29T13:09:08;15.70;;;12.07;;
19664;SDS011;9980;51.020;7.772;2023-04-29T13:11:43;14.83;;;11.93;;
19664;SDS011;9980;51.020;7.772;2023-04-29T13:14:09;17.50;;;12.70;;
19664;SDS011;9980;51.020;7.772;2023-04-29T13:16:36;16.03;;;12.67;;
19664;SDS011;9980;51.020;7.772;2023-04-29T13:19:03;17.03;;;12.67;;
19664;SDS011;9980;51.020;7.772;2023-04-29T13:21:49;16.40;;;13.23;;
19664;SDS011;9980;51.020;7.772;2023-04-29T13:24:15;15.47;;;12.60;;
19664;SDS011;9980;51.020;7.772;2023-04-29T13:26:43;15.67;;;12.80;;
19664;SDS011;9980;51.020;7.772;2023-04-29T13:29:09;15.27;;;12.77;;
19664;SDS011;9980;51.020;7.772;2023-04-29T13:31:36;17.03;;;13.60;;
19664;SDS011;9980;51.020;7.772;2023-04-29T13:34:02;17.57;;;13.90;;
19664;SDS011;9980;51.020;7.772;2023-04-29T13:36:28;14.50;;;13.00;;
19664;SDS011;9980;51.020;7.772;2023-04-29T13:38:55;15.83;;;13.73;;
19664;SDS011;9980;51.020;7.772;2023-04-29T13:41:21;17.40;;;13.50;;
19664;SDS011;9980;51.020;7.772;2023-04-29T13:43:48;16.57;;;13.83;;
19664;SDS011;9980;51.020;7.772;2023-04-29T13:46:16;16.07;;;13.03;;
19664;SDS011;9980;51.020;7.772;2023-04-29T13:48:45;16.07;;;13.83;;
19664;SDS011;9980;51.020;7.772;2023-04-29T13:51:15;15.40;;;13.37;;
19664;SDS011;9980;51.020;7.772;2023-04-29T13:54:01;15.97;;;13.40;;
19664;SDS011;9980;51.020;7.772;2023-04-29T13:56:47;14.83;;;12.77;;
19664;SDS011;9980;51.020;7.772;2023-04-29T13:59:17;17.83;;;13.57;;
19664;SDS011;9980;51.020;7.772;2023-04-29T14:01:46;16.60;;;13.87;;
19664;SDS011;9980;51.020;7.772;2023-04-29T14:04:16;15.73;;;13.27;;
19664;SDS011;9980;51.020;7.772;2023-04-29T14:06:42;16.70;;;13.80;;
19664;SDS011;9980;51.020;7.772;2023-04-29T14:09:08;16.23;;;14.00;;
19664;SDS011;9980;51.020;7.772;2023-04-29T14:11:35;14.90;;;13.03;;
19664;SDS011;9980;51.020;7.772;2023-04-29T14:14:01;16.10;;;13.47;;
19664;SDS011;9980;51.020;7.772;2023-04-29T14:16:28;18.67;;;13.50;;
19664;SDS011;9980;51.020;7.772;2023-04-29T14:18:55;17.20;;;14.03;;
19664;SDS011;9980;51.020;7.772;2023-04-29T14:21:21;14.50;;;13.00;;
19664;SDS011;9980;51.020;7.772;2023-04-29T14:23:48;17.63;;;13.50;;
19664;SDS011;9980;51.020;7.772;2023-04-29T14:26:15;16.33;;;13.53;;
19664;SDS011;9980;51.020;7.772;2023-04-29T14:28:54;15.57;;;13.23;;
19664;SDS011;9980;51.020;7.772;2023-04-29T14:31:25;14.93;;;13.07;;
19664;SDS011;9980;51.020;7.772;2023-04-29T14:33:58;17.30;;;14.33;;
19664;SDS011;9980;51.020;7.772;2023-04-29T14:36:24;15.57;;;13.37;;
19664;SDS011;9980;51.020;7.772;2023-04-29T14:38:51;15.67;;;13.30;;
19664;SDS011;9980;51.020;7.772;2023-04-29T14:41:18;15.73;;;13.60;;
19664;SDS011;9980;51.020;7.772;2023-04-29T14:43:46;18.40;;;14.00;;
19664;SDS011;9980;51.020;7.772;2023-04-29T14:46:12;14.80;;;13.17;;
19664;SDS011;9980;51.020;7.772;2023-04-29T14:48:39;17.50;;;13.10;;
19664;SDS011;9980;51.020;7.772;2023-04-29T14:51:05;17.13;;;13.80;;
19664;SDS011;9980;51.020;7.772;2023-04-29T14:53:32;16.80;;;13.93;;
19664;SDS011;9980;51.020;7.772;2023-04-29T14:55:59;15.23;;;13.63;;
19664;SDS011;9980;51.020;7.772;2023-04-29T14:58:25;18.50;;;14.80;;
19664;SDS011;9980;51.020;7.772;2023-04-29T15:00:52;17.73;;;14.93;;
19664;SDS011;9980;51.020;7.772;2023-04-29T15:03:18;16.97;;;14.83;;
19664;SDS011;9980;51.020;7.772;2023-04-29T15:05:48;18.40;;;15.17;;
19664;SDS011;9980;51.020;7.772;2023-04-29T15:08:16;17.07;;;14.03;;
19664;SDS011;9980;51.020;7.772;2023-04-29T15:10:43;18.43;;;14.57;;
19664;SDS011;9980;51.020;7.772;2023-04-29T15:13:14;14.97;;;13.37;;
19664;SDS011;9980;51.020;7.772;2023-04-29T15:15:40;16.73;;;14.30;;
19664;SDS011;9980;51.020;7.772;2023-04-29T15:18:07;20.43;;;14.57;;
19664;SDS011;9980;51.020;7.772;2023-04-29T15:20:34;16.73;;;13.70;;